createdAt,value
2023-04-21T00:00:11.684Z,36.47
2023-04-21T00:02:43.445Z,42.00
2023-04-21T00:05:12.449Z,39.70
2023-04-21T00:07:41.641Z,41.93
2023-04-21T00:10:12.606Z,37.70
2023-04-21T00:12:40.186Z,46.83
2023-04-21T00:15:08.710Z,40.87
2023-04-21T00:17:36.264Z,45.53
2023-04-21T00:20:05.009Z,40.90
2023-04-21T00:22:33.050Z,40.00
2023-04-21T00:25:00.297Z,38.60
2023-04-21T00:27:27.662Z,46.33
2023-04-21T00:29:55.047Z,42.47
2023-04-21T00:32:22.410Z,42.60
2023-04-21T00:34:51.057Z,42.67
2023-04-21T00:37:20.237Z,40.23
2023-04-21T00:39:47.734Z,40.77
2023-04-21T00:42:18.415Z,40.70
2023-04-21T00:44:45.986Z,42.80
2023-04-21T00:47:13.972Z,41.13
2023-04-21T00:49:42.773Z,39.97
2023-04-21T00:52:10.337Z,42.37
2023-04-21T00:54:38.098Z,42.17
2023-04-21T00:57:07.944Z,44.97
2023-04-21T00:59:36.272Z,44.73
2023-04-21T01:02:04.003Z,43.30
2023-04-21T01:04:37.134Z,46.90
2023-04-21T01:07:05.223Z,48.07
2023-04-21T01:09:32.841Z,47.27
2023-04-21T01:12:04.471Z,48.73
2023-04-21T01:14:35.104Z,44.97
2023-04-21T01:17:06.324Z,48.67
2023-04-21T01:19:36.553Z,47.67
2023-04-21T01:22:04.233Z,47.43
2023-04-21T01:24:39.235Z,47.00
2023-04-21T01:27:10.772Z,45.13
2023-04-21T01:29:38.617Z,44.57
2023-04-21T01:32:08.744Z,43.43
2023-04-21T01:34:36.416Z,47.60
2023-04-21T01:37:04.581Z,48.60
2023-04-21T01:39:32.183Z,48.57
2023-04-21T01:41:59.617Z,43.57
2023-04-21T01:44:27.157Z,45.60
2023-04-21T01:46:54.576Z,48.53
2023-04-21T01:49:22.043Z,47.67
2023-04-21T01:51:49.356Z,43.33
2023-04-21T01:54:16.751Z,46.10
2023-04-21T01:56:44.159Z,45.90
2023-04-21T01:59:11.695Z,47.77
2023-04-21T02:01:39.298Z,48.20
2023-04-21T02:04:07.070Z,45.67
2023-04-21T02:06:34.720Z,46.63
2023-04-21T02:09:02.105Z,49.53
2023-04-21T02:11:31.890Z,42.33
2023-04-21T02:13:59.448Z,52.43
2023-04-21T02:16:28.037Z,43.83
2023-04-21T02:18:57.069Z,44.17
2023-04-21T02:21:25.264Z,48.80
2023-04-21T02:23:52.904Z,45.40
2023-04-21T02:26:21.032Z,45.40
2023-04-21T02:28:49.635Z,45.50
2023-04-21T02:31:17.740Z,48.03
2023-04-21T02:33:45.805Z,44.20
2023-04-21T02:36:13.323Z,49.73
2023-04-21T02:38:42.359Z,49.37
2023-04-21T02:41:11.367Z,52.20
2023-04-21T02:43:41.564Z,45.00
2023-04-21T02:46:09.522Z,45.10
2023-04-21T02:48:37.639Z,43.00
2023-04-21T02:51:06.433Z,48.83
2023-04-21T02:53:33.933Z,44.33
2023-04-21T02:56:04.601Z,45.70
2023-04-21T02:58:32.134Z,44.90
2023-04-21T03:01:00.721Z,43.03
2023-04-21T03:03:28.424Z,49.03
2023-04-21T03:06:01.142Z,45.40
2023-04-21T03:08:28.732Z,46.47
2023-04-21T03:10:56.342Z,45.13
2023-04-21T03:13:26.405Z,47.10
2023-04-21T03:15:55.978Z,42.17
2023-04-21T03:18:23.457Z,49.43
2023-04-21T03:20:51.533Z,49.70
2023-04-21T03:23:19.078Z,51.20
2023-04-21T03:25:46.503Z,49.43
2023-04-21T03:28:16.939Z,51.37
2023-04-21T03:30:46.389Z,47.47
2023-04-21T03:33:13.635Z,47.97
2023-04-21T03:35:41.580Z,46.63
2023-04-21T03:38:09.188Z,47.53
2023-04-21T03:40:36.497Z,46.17
2023-04-21T03:43:04.333Z,47.73
2023-04-21T03:45:37.779Z,46.30
2023-04-21T03:48:05.196Z,50.53
2023-04-21T03:50:32.362Z,47.30
2023-04-21T03:52:59.457Z,49.83
2023-04-21T03:55:26.640Z,51.57
2023-04-21T03:57:53.772Z,49.73
2023-04-21T04:00:21.242Z,49.27
2023-04-21T04:02:49.653Z,43.03
2023-04-21T04:05:18.608Z,46.60
2023-04-21T04:07:45.823Z,48.50
2023-04-21T04:10:13.040Z,49.57
2023-04-21T04:12:40.319Z,46.03
2023-04-21T04:15:07.849Z,45.37
2023-04-21T04:17:34.988Z,51.83
2023-04-21T04:20:04.419Z,42.90
2023-04-21T04:22:31.622Z,44.77
2023-04-21T04:24:59.685Z,43.67
2023-04-21T04:27:28.159Z,43.20
2023-04-21T04:29:55.296Z,45.37
2023-04-21T04:32:22.474Z,51.07
2023-04-21T04:34:52.488Z,52.07
2023-04-21T04:37:21.739Z,45.87
2023-04-21T04:39:50.305Z,51.00
2023-04-21T04:42:17.483Z,41.77
2023-04-21T04:44:44.803Z,45.83
2023-04-21T04:47:12.505Z,44.30
2023-04-21T04:49:39.639Z,46.80
2023-04-21T04:52:07.008Z,47.93
2023-04-21T04:54:34.236Z,44.43
2023-04-21T04:57:02.339Z,47.53
2023-04-21T04:59:30.836Z,42.33
2023-04-21T05:01:58.181Z,50.77
2023-04-21T05:04:26.100Z,49.40
2023-04-21T05:06:53.782Z,48.60
2023-04-21T05:09:22.220Z,46.37
2023-04-21T05:11:49.370Z,43.67
2023-04-21T05:14:17.607Z,44.43
2023-04-21T05:16:45.051Z,39.93
2023-04-21T05:19:12.280Z,44.20
2023-04-21T05:21:39.464Z,39.90
2023-04-21T05:24:06.693Z,41.40
2023-04-21T05:26:33.859Z,40.10
2023-04-21T05:29:05.341Z,39.07
2023-04-21T05:31:33.074Z,43.50
2023-04-21T05:34:00.304Z,41.00
2023-04-21T05:36:27.777Z,40.80
2023-04-21T05:38:55.006Z,44.00
2023-04-21T05:41:22.489Z,38.27
2023-04-21T05:43:49.659Z,41.80
2023-04-21T05:46:17.906Z,36.77
2023-04-21T05:48:45.178Z,40.53
2023-04-21T05:51:15.768Z,38.60
2023-04-21T05:53:44.527Z,41.60
2023-04-21T05:56:12.355Z,39.43
2023-04-21T05:58:40.179Z,40.57
2023-04-21T06:01:07.505Z,38.70
2023-04-21T06:03:34.930Z,42.63
2023-04-21T06:06:03.498Z,42.70
2023-04-21T06:08:30.758Z,42.33
2023-04-21T06:10:58.124Z,40.90
2023-04-21T06:13:27.782Z,43.07
2023-04-21T06:15:58.609Z,42.80
2023-04-21T06:18:27.876Z,44.57
2023-04-21T06:20:56.581Z,40.27
2023-04-21T06:23:25.445Z,43.43
2023-04-21T06:26:04.780Z,44.77
2023-04-21T06:28:35.081Z,41.63
2023-04-21T06:31:03.087Z,40.47
2023-04-21T06:33:30.931Z,49.93
2023-04-21T06:35:58.216Z,44.40
2023-04-21T06:38:25.379Z,39.93
2023-04-21T06:40:52.657Z,45.70
2023-04-21T06:43:20.045Z,41.10
2023-04-21T06:45:47.178Z,43.90
2023-04-21T06:48:14.360Z,41.07
2023-04-21T06:50:44.157Z,43.00
2023-04-21T06:53:11.784Z,39.27
2023-04-21T06:55:39.061Z,45.00
2023-04-21T06:58:07.605Z,35.73
2023-04-21T07:00:34.828Z,37.93
2023-04-21T07:03:03.584Z,38.03
2023-04-21T07:05:30.912Z,41.37
2023-04-21T07:07:59.861Z,40.50
2023-04-21T07:10:27.764Z,37.87
2023-04-21T07:12:55.768Z,40.10
2023-04-21T07:15:22.947Z,39.07
2023-04-21T07:17:50.384Z,37.87
2023-04-21T07:20:18.773Z,36.87
2023-04-21T07:22:46.893Z,39.80
2023-04-21T07:25:14.143Z,41.77
2023-04-21T07:27:41.318Z,37.70
2023-04-21T07:30:08.737Z,34.63
2023-04-21T07:32:38.397Z,41.77
2023-04-21T07:35:06.553Z,38.83
2023-04-21T07:37:33.755Z,43.87
2023-04-21T07:40:01.469Z,41.03
2023-04-21T07:42:28.824Z,39.33
2023-04-21T07:44:57.390Z,40.33
2023-04-21T07:47:24.707Z,44.07
2023-04-21T07:49:51.960Z,36.43
2023-04-21T07:52:19.307Z,37.00
2023-04-21T07:54:48.606Z,42.33
2023-04-21T07:57:15.919Z,38.60
2023-04-21T07:59:44.107Z,41.27
2023-04-21T08:02:11.347Z,42.23
2023-04-21T08:04:38.791Z,41.30
2023-04-21T08:07:06.340Z,39.57
2023-04-21T08:09:33.567Z,36.33
2023-04-21T08:12:02.094Z,44.37
2023-04-21T08:14:29.399Z,40.60
2023-04-21T08:16:58.872Z,39.70
2023-04-21T08:19:27.349Z,40.97
2023-04-21T08:21:54.492Z,38.57
2023-04-21T08:24:24.675Z,38.57
2023-04-21T08:26:51.894Z,39.20
2023-04-21T08:29:19.047Z,37.13
2023-04-21T08:31:46.550Z,41.03
2023-04-21T08:34:13.806Z,36.73
2023-04-21T08:36:42.648Z,35.47
2023-04-21T08:39:11.399Z,45.43
2023-04-21T08:41:41.070Z,34.70
2023-04-21T08:44:09.171Z,37.83
2023-04-21T08:46:36.810Z,40.33
2023-04-21T08:49:04.386Z,39.77
2023-04-21T08:51:31.943Z,39.93
2023-04-21T08:53:59.616Z,37.70
2023-04-21T08:56:26.899Z,41.93
2023-04-21T08:58:54.344Z,39.33
2023-04-21T09:01:22.835Z,39.40
2023-04-21T09:03:50.297Z,37.83
2023-04-21T09:06:46.315Z,41.30
2023-04-21T09:09:13.692Z,35.17
2023-04-21T09:11:40.895Z,35.50
2023-04-21T09:14:10.722Z,39.60
2023-04-21T09:16:37.895Z,40.53
2023-04-21T09:19:14.578Z,37.97
2023-04-21T09:21:44.445Z,41.53
2023-04-21T09:24:12.985Z,42.60
2023-04-21T09:26:44.440Z,39.97
2023-04-21T09:29:13.340Z,39.07
2023-04-21T09:31:40.788Z,43.63
2023-04-21T09:34:18.431Z,48.43
2023-04-21T09:36:46.925Z,44.70
2023-04-21T09:39:34.277Z,37.13
2023-04-21T09:42:02.204Z,41.03
2023-04-21T09:44:31.931Z,40.27
2023-04-21T09:47:09.430Z,34.60
2023-04-21T09:49:36.943Z,38.20
2023-04-21T09:54:34.722Z,37.00
2023-04-21T09:57:03.383Z,36.47
2023-04-21T09:59:32.889Z,38.37
2023-04-21T10:02:03.066Z,41.73
2023-04-21T10:04:33.123Z,39.77
2023-04-21T10:07:01.699Z,39.13
2023-04-21T10:09:34.022Z,32.90
2023-04-21T10:12:02.611Z,37.07
2023-04-21T10:14:29.980Z,32.90
2023-04-21T10:16:58.236Z,36.33
2023-04-21T10:19:26.728Z,34.90
2023-04-21T10:22:01.051Z,34.70
2023-04-21T10:24:32.299Z,32.40
2023-04-21T10:26:59.628Z,33.93
2023-04-21T10:29:40.145Z,31.03
2023-04-21T10:32:11.454Z,30.60
2023-04-21T10:34:40.551Z,31.77
2023-04-21T10:37:07.669Z,30.63
2023-04-21T10:39:42.936Z,31.60
2023-04-21T10:42:13.223Z,29.90
2023-04-21T10:44:44.172Z,31.83
2023-04-21T10:47:11.783Z,35.63
2023-04-21T10:49:39.708Z,32.23
2023-04-21T10:52:12.109Z,30.10
2023-04-21T10:54:45.886Z,32.97
2023-04-21T10:57:14.975Z,26.93
2023-04-21T10:59:42.713Z,35.30
2023-04-21T11:02:16.576Z,30.00
2023-04-21T11:04:47.808Z,28.63
2023-04-21T11:07:19.477Z,36.33
2023-04-21T11:09:47.488Z,34.37
2023-04-21T11:12:15.826Z,31.40
2023-04-21T11:14:44.291Z,35.27
2023-04-21T11:17:12.601Z,34.20
2023-04-21T11:19:39.848Z,31.70
2023-04-21T11:22:08.364Z,31.50
2023-04-21T11:24:38.689Z,26.27
2023-04-21T11:27:12.234Z,29.73
2023-04-21T11:29:40.630Z,27.40
2023-04-21T11:32:08.722Z,24.73
2023-04-21T11:34:38.934Z,25.87
2023-04-21T11:37:08.198Z,26.07
2023-04-21T11:39:35.467Z,29.30
2023-04-21T11:42:03.155Z,25.43
2023-04-21T11:44:33.186Z,26.83
2023-04-21T11:47:00.611Z,31.67
2023-04-21T11:49:30.874Z,25.50
2023-04-21T11:51:58.095Z,24.77
2023-04-21T11:54:25.642Z,24.67
2023-04-21T11:56:55.110Z,24.23
2023-04-21T11:59:26.261Z,27.43
2023-04-21T12:01:54.610Z,21.33
2023-04-21T12:04:23.299Z,23.83
2023-04-21T12:07:17.176Z,25.67
2023-04-21T12:09:45.817Z,23.30
2023-04-21T12:12:13.019Z,20.60
2023-04-21T12:14:44.855Z,21.53
2023-04-21T12:17:12.078Z,24.50
2023-04-21T12:19:40.387Z,19.33
2023-04-21T12:22:11.253Z,23.07
2023-04-21T12:24:39.064Z,20.90
2023-04-21T12:27:06.735Z,22.17
2023-04-21T12:29:35.656Z,18.60
2023-04-21T12:32:04.431Z,20.83
2023-04-21T12:34:31.652Z,25.30
2023-04-21T12:36:58.816Z,19.63
2023-04-21T12:39:26.043Z,23.23
2023-04-21T12:41:54.051Z,20.20
2023-04-21T12:44:21.830Z,20.93
2023-04-21T12:46:49.430Z,21.57
2023-04-21T12:49:17.261Z,24.23
2023-04-21T12:51:44.543Z,24.37
2023-04-21T12:54:15.540Z,25.37
2023-04-21T12:56:43.451Z,18.33
2023-04-21T12:59:11.561Z,18.47
2023-04-21T13:01:41.273Z,23.40
2023-04-21T13:04:08.833Z,18.17
2023-04-21T13:06:36.476Z,18.60
2023-04-21T13:09:03.669Z,24.13
2023-04-21T13:11:31.042Z,19.97
2023-04-21T13:13:59.954Z,18.90
2023-04-21T13:16:29.532Z,16.70
2023-04-21T13:18:57.677Z,18.23
2023-04-21T13:21:24.947Z,15.50
2023-04-21T13:23:53.016Z,15.53
2023-04-21T13:26:20.257Z,17.43
2023-04-21T13:28:47.522Z,14.80
2023-04-21T13:31:15.536Z,18.27
2023-04-21T13:33:43.174Z,16.80
2023-04-21T13:36:12.811Z,14.93
2023-04-21T13:38:41.106Z,22.53
2023-04-21T13:41:09.262Z,16.03
2023-04-21T13:43:36.662Z,14.30
2023-04-21T13:46:04.125Z,14.57
2023-04-21T13:48:31.363Z,13.27
2023-04-21T13:50:59.866Z,12.90
2023-04-21T13:53:27.383Z,12.60
2023-04-21T13:55:57.627Z,14.00
2023-04-21T13:58:26.234Z,14.83
2023-04-21T14:00:56.117Z,15.23
2023-04-21T14:03:24.023Z,13.80
2023-04-21T14:05:51.417Z,13.00
2023-04-21T14:08:21.021Z,12.23
2023-04-21T14:10:49.222Z,18.83
2023-04-21T14:13:27.252Z,11.93
2023-04-21T14:16:02.077Z,12.67
2023-04-21T14:18:29.421Z,12.77
2023-04-21T14:20:58.152Z,11.60
2023-04-21T14:23:25.370Z,11.77
2023-04-21T14:25:54.953Z,12.57
2023-04-21T14:28:22.499Z,11.77
2023-04-21T14:30:52.042Z,11.20
2023-04-21T14:33:19.697Z,13.10
2023-04-21T14:35:49.262Z,14.20
2023-04-21T14:38:16.617Z,12.90
2023-04-21T14:40:44.842Z,12.33
2023-04-21T14:43:12.050Z,13.83
2023-04-21T14:45:41.061Z,14.13
2023-04-21T14:48:11.656Z,15.63
2023-04-21T14:50:39.215Z,13.87
2023-04-21T14:53:07.883Z,11.47
2023-04-21T14:55:35.327Z,12.53
2023-04-21T14:58:03.138Z,11.17
2023-04-21T15:00:34.596Z,9.97
2023-04-21T15:03:01.989Z,10.60
2023-04-21T15:05:29.307Z,12.27
2023-04-21T15:07:58.038Z,11.23
2023-04-21T15:10:25.222Z,12.60
2023-04-21T15:12:54.336Z,13.23
2023-04-21T15:15:21.544Z,12.73
2023-04-21T15:17:50.232Z,17.20
2023-04-21T15:20:17.825Z,12.30
2023-04-21T15:22:45.072Z,12.73
2023-04-21T15:25:12.332Z,10.90
2023-04-21T15:27:39.553Z,11.60
2023-04-21T15:30:07.022Z,11.43
2023-04-21T15:32:36.632Z,11.17
2023-04-21T15:35:03.981Z,10.27
2023-04-21T15:37:31.178Z,13.63
2023-04-21T15:39:58.485Z,12.10
2023-04-21T15:42:25.866Z,11.90
2023-04-21T15:44:53.595Z,11.23
2023-04-21T15:47:20.894Z,12.27
2023-04-21T15:49:48.172Z,15.97
2023-04-21T15:52:15.505Z,11.27
2023-04-21T15:54:46.019Z,10.90
2023-04-21T15:57:13.151Z,10.10
2023-04-21T15:59:41.139Z,11.97
2023-04-21T16:02:09.796Z,9.90
2023-04-21T16:04:37.532Z,11.20
2023-04-21T16:07:06.224Z,10.53
2023-04-21T16:09:33.452Z,11.47
2023-04-21T16:12:08.403Z,10.40
2023-04-21T16:14:50.878Z,16.03
2023-04-21T16:17:26.331Z,12.63
2023-04-21T16:19:54.261Z,10.43
2023-04-21T16:22:21.712Z,9.47
2023-04-21T16:24:49.874Z,10.40
2023-04-21T16:27:18.164Z,10.07
2023-04-21T16:29:45.408Z,9.90
2023-04-21T16:32:12.644Z,9.90
2023-04-21T16:34:40.098Z,10.23
2023-04-21T16:37:07.982Z,10.67
2023-04-21T16:39:36.390Z,10.00
2023-04-21T16:42:03.575Z,9.10
2023-04-21T16:44:31.416Z,10.90
2023-04-21T16:47:02.421Z,10.07
2023-04-21T16:49:31.336Z,9.73
2023-04-21T16:51:58.600Z,10.53
2023-04-21T16:54:25.937Z,9.20
2023-04-21T16:56:54.208Z,10.27
2023-04-21T16:59:23.992Z,10.53
2023-04-21T17:01:51.269Z,12.03
2023-04-21T17:04:18.854Z,9.07
2023-04-21T17:06:48.092Z,8.63
2023-04-21T17:09:15.389Z,9.47
2023-04-21T17:11:42.565Z,7.70
2023-04-21T17:14:10.730Z,8.00
2023-04-21T17:16:37.947Z,7.87
2023-04-21T17:19:05.508Z,8.83
2023-04-21T17:21:32.677Z,8.60
2023-04-21T17:24:00.529Z,8.57
2023-04-21T17:26:27.838Z,8.37
2023-04-21T17:28:57.415Z,8.90
2023-04-21T17:31:24.716Z,7.70
2023-04-21T17:33:53.169Z,7.13
2023-04-21T17:36:21.429Z,8.63
2023-04-21T17:38:49.820Z,7.37
2023-04-21T17:41:17.094Z,6.60
2023-04-21T17:43:47.731Z,8.97
2023-04-21T17:46:14.909Z,7.27
2023-04-21T17:48:42.096Z,8.00
2023-04-21T17:51:10.137Z,7.80
2023-04-21T17:53:37.557Z,8.17
2023-04-21T17:56:04.762Z,8.23
2023-04-21T17:58:31.913Z,8.00
2023-04-21T18:00:59.482Z,7.40
2023-04-21T18:03:28.378Z,7.87
2023-04-21T18:05:56.812Z,8.53
2023-04-21T18:08:24.068Z,6.30
2023-04-21T18:10:51.253Z,4.53
2023-04-21T18:13:18.443Z,4.33
2023-04-21T18:15:45.718Z,4.23
2023-04-21T18:18:14.202Z,5.70
2023-04-21T18:20:41.475Z,3.90
2023-04-21T18:23:09.857Z,5.67
2023-04-21T18:25:42.614Z,6.10
2023-04-21T18:28:14.215Z,3.53
2023-04-21T18:30:41.808Z,3.83
2023-04-21T18:33:10.202Z,3.90
2023-04-21T18:35:41.829Z,4.47
2023-04-21T18:38:11.423Z,4.37
2023-04-21T18:40:40.650Z,6.87
2023-04-21T18:43:09.371Z,4.47
2023-04-21T18:45:36.583Z,3.73
2023-04-21T18:48:05.186Z,4.07
2023-04-21T18:50:34.620Z,5.83
2023-04-21T18:53:03.102Z,4.60
2023-04-21T18:55:33.368Z,5.40
2023-04-21T18:58:00.571Z,5.50
2023-04-21T19:00:27.738Z,5.17
2023-04-21T19:02:55.132Z,6.40
2023-04-21T19:05:22.630Z,6.07
2023-04-21T19:07:51.344Z,5.73
2023-04-21T19:10:18.671Z,8.73
2023-04-21T19:12:45.853Z,6.80
2023-04-21T19:15:13.082Z,8.90
2023-04-21T19:17:43.436Z,6.90
2023-04-21T19:20:10.950Z,10.10
2023-04-21T19:22:38.187Z,8.50
2023-04-21T19:25:10.775Z,11.77
2023-04-21T19:27:37.948Z,10.53
2023-04-21T19:30:06.745Z,8.00
2023-04-21T19:32:37.052Z,7.67
2023-04-21T19:35:04.393Z,8.00
2023-04-21T19:37:35.259Z,8.40
2023-04-21T19:40:06.155Z,9.47
2023-04-21T19:42:33.633Z,13.70
2023-04-21T19:45:00.880Z,13.70
2023-04-21T19:47:28.286Z,10.13
2023-04-21T19:49:58.026Z,9.27
2023-04-21T19:52:25.725Z,15.20
2023-04-21T19:54:52.901Z,9.50
2023-04-21T19:57:20.692Z,13.17
2023-04-21T19:59:49.700Z,13.20
2023-04-21T20:02:17.031Z,10.47
2023-04-21T20:04:44.458Z,10.33
2023-04-21T20:07:11.962Z,12.97
2023-04-21T20:09:39.402Z,12.43
2023-04-21T20:12:06.797Z,11.40
2023-04-21T20:14:34.668Z,10.90
2023-04-21T20:17:02.516Z,10.97
2023-04-21T20:19:31.720Z,8.60
2023-04-21T20:21:59.186Z,9.97
2023-04-21T20:24:27.051Z,10.90
2023-04-21T20:26:54.293Z,11.47
2023-04-21T20:29:21.571Z,11.47
2023-04-21T20:31:50.842Z,9.07
2023-04-21T20:34:18.130Z,12.70
2023-04-21T20:36:45.552Z,8.70
2023-04-21T20:39:14.537Z,9.80
2023-04-21T20:41:45.637Z,8.57
2023-04-21T20:44:12.948Z,8.60
2023-04-21T20:46:40.770Z,9.10
2023-04-21T20:49:08.026Z,8.60
2023-04-21T20:51:35.244Z,8.40
2023-04-21T20:54:02.616Z,7.27
2023-04-21T20:56:29.884Z,49.70
2023-04-21T20:58:57.154Z,8.60
2023-04-21T21:01:24.459Z,8.40
2023-04-21T21:03:51.907Z,12.43
2023-04-21T21:06:19.774Z,7.87
2023-04-21T21:08:49.342Z,7.60
2023-04-21T21:11:17.553Z,11.83
2023-04-21T21:13:45.360Z,7.40
2023-04-21T21:16:12.560Z,8.37
2023-04-21T21:18:41.735Z,9.50
2023-04-21T21:21:09.012Z,7.43
2023-04-21T21:23:37.887Z,7.63
2023-04-21T21:26:06.142Z,8.50
2023-04-21T21:28:33.323Z,7.73
2023-04-21T21:31:00.619Z,8.07
2023-04-21T21:33:27.844Z,8.00
2023-04-21T21:35:55.147Z,8.20
2023-04-21T21:38:22.399Z,11.50
2023-04-21T21:40:49.858Z,9.03
2023-04-21T21:43:17.004Z,8.63
2023-04-21T21:45:44.476Z,10.17
2023-04-21T21:48:11.861Z,10.40
2023-04-21T21:50:39.125Z,11.87
2023-04-21T21:53:07.096Z,8.57
2023-04-21T21:55:34.317Z,7.53
2023-04-21T21:58:03.570Z,8.57
2023-04-21T22:00:32.298Z,18.97
2023-04-21T22:03:00.067Z,16.80
2023-04-21T22:05:27.715Z,10.47
2023-04-21T22:07:56.917Z,8.00
2023-04-21T22:10:25.610Z,8.30
2023-04-21T22:12:54.198Z,9.17
2023-04-21T22:15:22.304Z,7.53
2023-04-21T22:17:53.039Z,9.27
2023-04-21T22:20:21.920Z,10.00
2023-04-21T22:22:49.987Z,13.07
2023-04-21T22:25:17.182Z,10.17
2023-04-21T22:27:44.349Z,9.70
2023-04-21T22:30:12.132Z,8.73
2023-04-21T22:32:39.558Z,14.60
2023-04-21T22:35:06.759Z,12.10
2023-04-21T22:37:33.882Z,13.27
2023-04-21T22:40:01.459Z,8.93
2023-04-21T22:42:28.610Z,9.20
2023-04-21T22:44:55.776Z,10.33
2023-04-21T22:47:23.290Z,9.33
2023-04-21T22:49:51.201Z,13.33
2023-04-21T22:52:18.343Z,11.37
2023-04-21T22:54:47.625Z,9.40
2023-04-21T22:57:14.866Z,9.97
2023-04-21T22:59:43.621Z,11.60
2023-04-21T23:02:13.612Z,9.63
2023-04-21T23:04:42.778Z,8.50
2023-04-21T23:07:10.248Z,8.20
2023-04-21T23:09:38.072Z,9.80
2023-04-21T23:12:06.143Z,11.63
2023-04-21T23:14:33.692Z,8.00
2023-04-21T23:17:01.369Z,11.40
2023-04-21T23:19:29.018Z,9.67
2023-04-21T23:21:56.544Z,11.20
2023-04-21T23:24:24.055Z,11.67
2023-04-21T23:26:52.717Z,11.93
2023-04-21T23:29:22.830Z,10.53
2023-04-21T23:31:50.307Z,9.90
2023-04-21T23:34:17.752Z,11.90
2023-04-21T23:36:48.841Z,13.47
2023-04-21T23:39:18.921Z,11.40
2023-04-21T23:41:47.902Z,10.87
2023-04-21T23:44:15.303Z,15.47
2023-04-21T23:46:44.779Z,15.33
2023-04-21T23:49:12.187Z,12.20
2023-04-21T23:51:39.824Z,9.13
2023-04-21T23:54:09.645Z,13.17
2023-04-21T23:56:36.994Z,10.13
2023-04-21T23:59:06.439Z,11.23
